Terminal Aerodrome Forecast
Issued by NWS Jackson, KY

Home | Current Version | Previous Version | Text Only | Print | Product List | Glossary On
Versions: 1 2 3 4 5 6 7 8 9 10 11 12 13 14 15 16 17
000
FTUS43 KJKL 290100 AAA
TAFJKL
TAF AMD
KJKL 290132Z 2902/2924 26008KT 1 1/2SM -SHRA BR OVC004
     FM290600 29003KT 6SM BR VCSH OVC025
     FM291400 30009KT P6SM FEW035=

USA.gov is the U.S. government's official web portal to all federal, state and local government web resources and services.